createdAt,value
2019-05-09T00:02:13.794Z,71.20
2019-05-09T00:04:39.821Z,70.90
2019-05-09T00:07:06.152Z,70.80
2019-05-09T00:09:33.559Z,70.60
2019-05-09T00:12:00.143Z,70.50
2019-05-09T00:14:28.090Z,70.50
2019-05-09T00:16:54.442Z,70.50
2019-05-09T00:19:20.978Z,70.60
2019-05-09T00:21:54.055Z,70.40
2019-05-09T00:24:20.331Z,70.50
2019-05-09T00:26:46.943Z,70.40
2019-05-09T00:29:18.077Z,70.60
2019-05-09T00:31:46.556Z,70.50
2019-05-09T00:34:14.685Z,70.80
2019-05-09T00:36:41.105Z,70.80
2019-05-09T00:39:07.541Z,70.50
2019-05-09T00:41:33.871Z,70.90
2019-05-09T00:44:03.372Z,70.80
2019-05-09T00:46:47.115Z,70.80
2019-05-09T00:49:18.461Z,71.00
2019-05-09T00:51:44.698Z,71.10
2019-05-09T00:54:13.354Z,71.20
2019-05-09T00:56:39.405Z,71.30
2019-05-09T00:59:05.728Z,71.40
2019-05-09T01:01:34.078Z,71.80
2019-05-09T01:04:00.149Z,71.80
2019-05-09T01:06:26.564Z,71.70
2019-05-09T01:08:53.599Z,71.80
2019-05-09T01:11:20.555Z,72.00
2019-05-09T01:13:46.986Z,72.30
2019-05-09T01:16:13.525Z,72.20
2019-05-09T01:18:40.056Z,72.40
2019-05-09T01:21:06.466Z,72.90
2019-05-09T01:23:34.410Z,72.80
2019-05-09T01:26:01.098Z,72.70
2019-05-09T01:28:27.426Z,72.80
2019-05-09T01:30:54.069Z,72.70
2019-05-09T01:33:24.123Z,73.00
2019-05-09T01:35:50.414Z,73.10
2019-05-09T01:38:16.741Z,73.10
2019-05-09T01:40:43.879Z,73.30
2019-05-09T01:43:13.677Z,73.40
2019-05-09T01:45:39.691Z,74.40
2019-05-09T01:48:06.204Z,73.30
2019-05-09T01:50:34.057Z,73.30
2019-05-09T01:53:01.015Z,73.40
2019-05-09T01:55:45.731Z,73.20
2019-05-09T01:58:13.873Z,73.40
2019-05-09T02:00:40.183Z,73.20
2019-05-09T02:03:06.488Z,73.50
2019-05-09T02:05:34.022Z,73.60
2019-05-09T02:08:03.355Z,73.40
2019-05-09T02:10:29.254Z,73.50
2019-05-09T02:12:55.568Z,73.50
2019-05-09T02:15:26.468Z,73.60
2019-05-09T02:18:13.602Z,73.60
2019-05-09T02:20:39.394Z,73.50
2019-05-09T02:23:05.724Z,73.50
2019-05-09T02:25:33.512Z,73.70
2019-05-09T02:28:00.026Z,73.80
2019-05-09T02:30:26.359Z,73.80
2019-05-09T02:32:54.665Z,73.80
2019-05-09T02:35:21.065Z,73.80
2019-05-09T02:37:49.824Z,74.10
2019-05-09T02:40:18.513Z,74.00
2019-05-09T02:42:44.048Z,74.20
2019-05-09T02:45:11.028Z,74.50
2019-05-09T02:47:38.624Z,74.40
2019-05-09T02:50:09.146Z,74.10
2019-05-09T02:52:35.001Z,74.10
2019-05-09T02:55:01.435Z,74.00
2019-05-09T02:57:29.363Z,74.00
2019-05-09T03:00:14.882Z,74.00
2019-05-09T03:02:48.506Z,74.00
2019-05-09T03:05:14.609Z,73.80
2019-05-09T03:07:49.875Z,74.00
2019-05-09T03:10:20.278Z,74.30
2019-05-09T03:12:50.262Z,74.20
2019-05-09T03:15:18.374Z,74.20
2019-05-09T03:17:43.873Z,74.20
2019-05-09T03:20:13.618Z,74.30
2019-05-09T03:22:39.958Z,74.20
2019-05-09T03:25:08.978Z,74.10
2019-05-09T03:27:39.096Z,74.20
2019-05-09T03:30:11.438Z,74.20
2019-05-09T03:32:38.568Z,74.10
2019-05-09T03:35:04.774Z,74.90
2019-05-09T03:37:31.105Z,74.20
2019-05-09T03:39:58.149Z,74.10
2019-05-09T03:42:38.098Z,74.10
2019-05-09T03:44:52.756Z,74.10
2019-05-09T03:47:27.603Z,74.20
2019-05-09T03:50:08.397Z,74.10
2019-05-09T03:52:37.184Z,74.10
2019-05-09T03:55:07.359Z,74.00
2019-05-09T03:57:37.291Z,74.10
2019-05-09T04:00:07.667Z,74.10
2019-05-09T04:02:34.238Z,73.90
2019-05-09T04:05:00.794Z,73.90
2019-05-09T04:07:27.762Z,73.80
2019-05-09T04:09:55.284Z,73.80
2019-05-09T04:12:21.607Z,73.70
2019-05-09T04:14:48.149Z,73.80
2019-05-09T04:17:14.716Z,73.80
2019-05-09T04:19:41.016Z,73.80
2019-05-09T04:22:08.019Z,73.80
2019-05-09T04:24:35.314Z,73.80
2019-05-09T04:27:12.600Z,73.70
2019-05-09T04:29:39.146Z,73.90
2019-05-09T04:32:07.703Z,74.00
2019-05-09T04:34:33.839Z,74.10
2019-05-09T04:37:00.273Z,74.20
2019-05-09T04:39:28.206Z,74.30
2019-05-09T04:41:55.115Z,74.50
2019-05-09T04:44:34.110Z,74.60
2019-05-09T04:47:03.699Z,74.70
2019-05-09T04:49:30.068Z,74.80
2019-05-09T04:51:58.358Z,74.90
2019-05-09T04:54:25.269Z,75.00
2019-05-09T04:56:53.933Z,75.20
2019-05-09T04:59:20.488Z,75.40
2019-05-09T05:01:58.285Z,75.50
2019-05-09T05:04:28.112Z,75.70
2019-05-09T05:06:54.457Z,75.90
2019-05-09T05:09:21.458Z,76.00
2019-05-09T05:11:49.058Z,76.20
2019-05-09T05:14:21.612Z,77.20
2019-05-09T05:16:53.544Z,76.50
2019-05-09T05:19:17.976Z,77.10
2019-05-09T05:21:48.041Z,77.30
2019-05-09T05:24:15.140Z,78.00
2019-05-09T05:26:41.670Z,78.30
2019-05-09T05:29:08.510Z,78.60
2019-05-09T05:31:35.052Z,79.00
2019-05-09T05:34:03.424Z,79.30
2019-05-09T05:36:29.756Z,79.40
2019-05-09T05:38:58.374Z,79.50
2019-05-09T05:41:28.315Z,79.70
2019-05-09T05:43:52.547Z,80.00
2019-05-09T05:46:28.575Z,80.70
2019-05-09T05:48:57.794Z,82.70
2019-05-09T05:51:24.241Z,84.20
2019-05-09T05:53:50.653Z,84.60
2019-05-09T05:56:17.583Z,83.10
2019-05-09T05:58:44.130Z,81.40
2019-05-09T06:01:10.461Z,80.40
2019-05-09T06:03:37.671Z,79.70
2019-05-09T06:06:04.366Z,79.10
2019-05-09T06:08:30.624Z,78.00
2019-05-09T06:10:57.627Z,77.70
2019-05-09T06:13:24.161Z,77.40
2019-05-09T06:15:50.613Z,77.40
2019-05-09T06:18:18.435Z,77.20
2019-05-09T06:20:45.674Z,77.70
2019-05-09T06:23:13.273Z,77.20
2019-05-09T06:25:39.715Z,77.70
2019-05-09T06:28:07.682Z,76.30
2019-05-09T06:30:34.351Z,75.90
2019-05-09T06:33:04.409Z,74.40
2019-05-09T06:35:28.815Z,73.50
2019-05-09T06:37:55.409Z,73.50
2019-05-09T06:40:22.881Z,73.50
2019-05-09T06:42:50.288Z,73.80
2019-05-09T06:45:39.093Z,72.00
2019-05-09T06:48:03.647Z,71.40
2019-05-09T06:50:29.912Z,71.00
2019-05-09T06:52:57.328Z,70.40
2019-05-09T06:55:23.813Z,68.00
2019-05-09T06:57:50.192Z,67.20
2019-05-09T07:00:37.763Z,66.10
2019-05-09T07:03:08.076Z,65.00
2019-05-09T07:05:35.942Z,65.30
2019-05-09T07:08:04.610Z,65.20
2019-05-09T07:10:31.019Z,63.50
2019-05-09T07:12:58.499Z,64.00
2019-05-09T07:15:25.012Z,63.60
2019-05-09T07:17:51.668Z,62.00
2019-05-09T07:20:18.334Z,61.30
2019-05-09T07:22:48.133Z,60.80
2019-05-09T07:25:27.625Z,61.50
2019-05-09T07:27:53.465Z,61.50
2019-05-09T07:30:31.172Z,60.50
2019-05-09T07:33:08.612Z,59.70
2019-05-09T07:35:35.082Z,59.60
2019-05-09T07:38:01.350Z,59.80
2019-05-09T07:40:30.465Z,59.50
2019-05-09T07:42:58.187Z,59.00
2019-05-09T07:45:23.982Z,59.10
2019-05-09T07:47:50.256Z,58.80
2019-05-09T07:50:19.011Z,58.40
2019-05-09T07:52:44.784Z,58.90
2019-05-09T07:55:11.274Z,59.30
2019-05-09T07:57:45.584Z,59.20
2019-05-09T08:00:07.814Z,59.10
2019-05-09T08:02:34.227Z,58.80
2019-05-09T08:05:00.565Z,59.20
2019-05-09T08:07:29.018Z,59.70
2019-05-09T08:09:55.068Z,58.80
2019-05-09T08:12:21.361Z,58.90
2019-05-09T08:15:06.805Z,58.70
2019-05-09T08:17:18.038Z,59.20
2019-05-09T08:19:43.974Z,59.40
2019-05-09T08:22:10.278Z,58.90
2019-05-09T08:24:38.023Z,59.70
2019-05-09T08:27:04.710Z,59.30
2019-05-09T08:29:31.035Z,59.10
2019-05-09T08:31:58.323Z,58.60
2019-05-09T08:34:24.927Z,57.80
2019-05-09T08:36:51.208Z,58.50
2019-05-09T08:39:18.354Z,57.80
2019-05-09T08:41:48.320Z,58.20
2019-05-09T08:44:13.833Z,58.30
2019-05-09T08:46:40.162Z,59.60
2019-05-09T08:49:08.137Z,60.20
2019-05-09T08:51:51.977Z,58.70
2019-05-09T08:54:09.301Z,57.80
2019-05-09T08:56:38.570Z,57.60
2019-05-09T08:59:03.897Z,58.00
2019-05-09T09:01:50.632Z,58.10
2019-05-09T09:03:58.401Z,57.80
2019-05-09T09:06:24.628Z,57.70
2019-05-09T09:08:50.958Z,56.60
2019-05-09T09:11:18.777Z,56.00
2019-05-09T09:13:45.463Z,56.20
2019-05-09T09:16:18.799Z,56.20
2019-05-09T09:18:39.863Z,56.30
2019-05-09T09:21:08.054Z,56.70
2019-05-09T09:23:44.177Z,56.90
2019-05-09T09:26:02.745Z,56.60
2019-05-09T09:28:29.075Z,55.30
2019-05-09T09:30:55.406Z,55.70
2019-05-09T09:33:21.735Z,55.70
2019-05-09T09:35:48.881Z,55.60
2019-05-09T09:38:17.572Z,56.00
2019-05-09T09:40:43.596Z,56.00
2019-05-09T09:43:10.347Z,55.90
2019-05-09T09:45:37.758Z,55.00
2019-05-09T09:48:04.462Z,54.80
2019-05-09T09:50:30.859Z,54.50
2019-05-09T09:52:58.728Z,54.70
2019-05-09T09:55:27.648Z,54.70
2019-05-09T09:57:53.465Z,54.30
2019-05-09T10:00:43.226Z,53.80
2019-05-09T10:03:09.658Z,54.60
2019-05-09T10:05:38.053Z,53.20
2019-05-09T10:08:04.153Z,52.50
2019-05-09T10:10:32.901Z,52.90
2019-05-09T10:13:03.822Z,52.50
2019-05-09T10:15:40.223Z,51.70
2019-05-09T10:18:08.360Z,52.30
2019-05-09T10:20:38.539Z,50.90
2019-05-09T10:23:14.995Z,50.60
2019-05-09T10:25:32.837Z,50.80
2019-05-09T10:27:59.109Z,52.20
2019-05-09T10:30:30.501Z,51.50
2019-05-09T10:32:58.339Z,51.00
2019-05-09T10:35:24.830Z,50.60
2019-05-09T10:37:51.246Z,51.30
2019-05-09T10:40:21.674Z,50.90
2019-05-09T10:42:53.333Z,50.60
2019-05-09T10:45:24.473Z,50.00
2019-05-09T10:47:50.944Z,49.20
2019-05-09T10:50:18.388Z,49.00
2019-05-09T10:52:44.901Z,49.30
2019-05-09T10:55:11.230Z,49.30
2019-05-09T10:57:42.522Z,49.40
2019-05-09T11:00:08.791Z,48.70
2019-05-09T11:02:34.826Z,48.30
2019-05-09T11:05:01.269Z,48.00
2019-05-09T11:07:28.949Z,48.10
2019-05-09T11:09:58.541Z,47.00
2019-05-09T11:12:23.736Z,46.20
2019-05-09T11:14:50.286Z,46.30
2019-05-09T11:17:21.048Z,46.30
2019-05-09T11:19:44.771Z,46.70
2019-05-09T11:22:11.017Z,46.90
2019-05-09T11:24:45.731Z,46.50
2019-05-09T11:27:08.306Z,47.20
2019-05-09T11:29:33.676Z,47.00
2019-05-09T11:32:00.009Z,47.30
2019-05-09T11:34:26.339Z,47.00
2019-05-09T11:36:53.316Z,47.30
2019-05-09T11:39:35.094Z,47.10
2019-05-09T11:41:48.816Z,46.20
2019-05-09T11:44:15.346Z,46.90
2019-05-09T11:46:41.604Z,46.90
2019-05-09T11:49:08.466Z,46.40
2019-05-09T11:51:35.054Z,46.00
2019-05-09T11:54:01.492Z,46.60
2019-05-09T11:56:28.227Z,46.60
2019-05-09T11:58:54.583Z,46.70
2019-05-09T12:01:20.990Z,46.10
2019-05-09T12:03:51.572Z,45.60
2019-05-09T12:06:16.187Z,45.60
2019-05-09T12:08:42.847Z,45.80
2019-05-09T12:11:09.187Z,45.80
2019-05-09T12:13:37.813Z,45.40
2019-05-09T12:16:03.890Z,45.30
2019-05-09T12:18:30.218Z,45.60
2019-05-09T12:20:57.662Z,45.80
2019-05-09T12:23:24.191Z,45.40
2019-05-09T12:25:50.540Z,46.00
2019-05-09T12:28:18.968Z,46.00
2019-05-09T12:30:45.042Z,46.30
2019-05-09T12:33:11.375Z,46.70
2019-05-09T12:35:38.642Z,46.70
2019-05-09T12:38:05.195Z,46.90
2019-05-09T12:40:31.420Z,46.70
2019-05-09T12:42:57.852Z,47.90
2019-05-09T12:45:24.258Z,48.40
2019-05-09T12:48:05.832Z,48.70
2019-05-09T12:50:18.891Z,49.00
2019-05-09T12:52:45.223Z,49.40
2019-05-09T12:55:13.038Z,49.90
2019-05-09T12:57:39.829Z,50.40
2019-05-09T13:00:09.030Z,51.00
2019-05-09T13:02:35.767Z,51.50
2019-05-09T13:05:08.081Z,51.90
2019-05-09T13:07:38.072Z,52.40
2019-05-09T13:10:04.591Z,52.70
2019-05-09T13:12:31.321Z,52.50
2019-05-09T13:14:58.048Z,53.00
2019-05-09T13:17:29.230Z,53.10
2019-05-09T13:19:55.645Z,53.50
2019-05-09T13:22:21.980Z,53.50
2019-05-09T13:24:48.510Z,52.90
2019-05-09T13:27:14.947Z,53.50
2019-05-09T13:29:41.685Z,53.70
2019-05-09T13:32:08.794Z,53.60
2019-05-09T13:34:37.807Z,53.80
2019-05-09T13:37:03.748Z,53.70
2019-05-09T13:39:30.182Z,53.60
2019-05-09T13:41:58.244Z,53.20
2019-05-09T13:44:24.783Z,52.60
2019-05-09T13:46:51.270Z,51.80
2019-05-09T13:49:19.412Z,51.80
2019-05-09T13:51:51.200Z,51.30
2019-05-09T13:54:14.217Z,51.90
2019-05-09T13:56:40.537Z,51.00
2019-05-09T13:59:08.320Z,50.60
2019-05-09T14:01:34.935Z,49.60
2019-05-09T14:04:02.178Z,49.60
2019-05-09T14:06:29.558Z,50.20
2019-05-09T14:08:59.428Z,50.20
2019-05-09T14:11:24.250Z,49.60
2019-05-09T14:13:50.712Z,49.00
2019-05-09T14:16:22.117Z,48.30
2019-05-09T14:18:48.573Z,49.00
2019-05-09T14:21:14.622Z,49.30
2019-05-09T14:23:59.133Z,48.70
2019-05-09T14:26:09.569Z,48.70
2019-05-09T14:28:36.367Z,48.60
2019-05-09T14:31:02.774Z,48.30
2019-05-09T14:33:29.597Z,48.10
2019-05-09T14:35:56.153Z,47.80
2019-05-09T14:38:22.482Z,47.90
2019-05-09T14:40:48.816Z,48.30
2019-05-09T14:43:15.145Z,48.10
2019-05-09T14:45:41.883Z,48.10
2019-05-09T14:48:08.343Z,48.10
2019-05-09T14:50:34.751Z,48.40
2019-05-09T14:53:01.039Z,47.80
2019-05-09T14:55:28.616Z,48.10
2019-05-09T14:57:55.086Z,46.10
2019-05-09T15:00:22.139Z,45.80
2019-05-09T15:02:49.037Z,45.70
2019-05-09T15:05:18.656Z,45.10
2019-05-09T15:07:43.875Z,44.70
2019-05-09T15:10:10.629Z,44.60
2019-05-09T15:12:39.084Z,45.20
2019-05-09T15:15:07.571Z,45.40
2019-05-09T15:17:34.264Z,45.50
2019-05-09T15:20:00.843Z,45.90
2019-05-09T15:22:28.547Z,46.30
2019-05-09T15:24:55.252Z,46.60
2019-05-09T15:27:21.467Z,47.20
2019-05-09T15:29:48.611Z,48.50
2019-05-09T15:32:15.167Z,49.10
2019-05-09T15:34:41.508Z,49.50
2019-05-09T15:37:08.839Z,50.50
2019-05-09T15:39:37.967Z,51.40
2019-05-09T15:42:03.683Z,52.30
2019-05-09T15:44:29.991Z,52.30
2019-05-09T15:46:58.194Z,52.40
2019-05-09T15:49:24.700Z,52.40
2019-05-09T15:51:51.024Z,51.70
2019-05-09T15:54:17.993Z,50.90
2019-05-09T15:56:48.136Z,50.60
2019-05-09T15:59:13.501Z,50.00
2019-05-09T16:01:40.041Z,49.90
2019-05-09T16:04:08.401Z,49.80
2019-05-09T16:06:34.644Z,49.80
2019-05-09T16:09:01.001Z,49.40
2019-05-09T16:11:28.584Z,49.30
2019-05-09T16:13:55.375Z,48.80
2019-05-09T16:16:21.708Z,48.50
2019-05-09T16:18:48.664Z,48.70
2019-05-09T16:21:15.604Z,49.10
2019-05-09T16:23:42.045Z,49.60
2019-05-09T16:26:08.374Z,50.40
2019-05-09T16:28:34.800Z,50.70
2019-05-09T16:31:01.241Z,51.20
2019-05-09T16:33:27.961Z,51.80
2019-05-09T16:35:54.488Z,52.20
2019-05-09T16:38:20.932Z,52.70
2019-05-09T16:40:47.949Z,53.20
2019-05-09T16:43:14.297Z,53.00
2019-05-09T16:45:40.743Z,53.70
2019-05-09T16:48:11.443Z,53.30
2019-05-09T16:50:35.349Z,53.90
2019-05-09T16:53:01.685Z,54.40
2019-05-09T16:55:31.306Z,55.10
2019-05-09T16:57:57.864Z,55.60
2019-05-09T17:00:47.866Z,56.20
2019-05-09T17:03:14.547Z,55.60
2019-05-09T17:05:40.981Z,57.20
2019-05-09T17:08:08.148Z,57.80
2019-05-09T17:10:34.769Z,58.10
2019-05-09T17:13:01.406Z,58.30
2019-05-09T17:15:29.221Z,58.50
2019-05-09T17:17:55.909Z,58.20
2019-05-09T17:20:27.789Z,57.80
2019-05-09T17:23:14.477Z,57.50
2019-05-09T17:25:38.498Z,57.50
2019-05-09T17:28:05.091Z,57.30
2019-05-09T17:30:31.488Z,57.30
2019-05-09T17:32:59.525Z,57.60
2019-05-09T17:35:27.926Z,56.20
2019-05-09T17:37:54.448Z,57.50
2019-05-09T17:40:20.840Z,57.40
2019-05-09T17:42:47.374Z,57.30
2019-05-09T17:45:14.070Z,57.30
2019-05-09T17:47:40.443Z,57.30
2019-05-09T17:50:07.704Z,57.50
2019-05-09T17:52:34.231Z,57.60
2019-05-09T17:55:00.661Z,57.90
2019-05-09T17:57:27.906Z,57.40
2019-05-09T17:59:54.452Z,56.30
2019-05-09T18:02:20.779Z,56.30
2019-05-09T18:04:48.010Z,55.20
2019-05-09T18:07:14.567Z,54.90
2019-05-09T18:09:41.102Z,54.60
2019-05-09T18:12:08.266Z,55.60
2019-05-09T18:14:34.888Z,56.20
2019-05-09T18:17:01.514Z,56.60
2019-05-09T18:19:29.368Z,57.00
2019-05-09T18:21:57.738Z,57.60
2019-05-09T18:24:24.210Z,57.90
2019-05-09T18:26:50.869Z,58.40
2019-05-09T18:29:18.166Z,58.70
2019-05-09T18:31:49.341Z,59.10
2019-05-09T18:34:18.401Z,59.40
2019-05-09T18:36:43.947Z,59.60
2019-05-09T18:39:10.411Z,59.80
2019-05-09T18:41:36.723Z,60.10
2019-05-09T18:44:03.443Z,60.20
2019-05-09T18:46:29.984Z,60.30
2019-05-09T18:48:56.309Z,60.60
2019-05-09T18:51:22.640Z,60.70
2019-05-09T18:53:48.972Z,60.70
2019-05-09T18:56:15.281Z,60.70
2019-05-09T18:58:41.937Z,60.90
2019-05-09T19:01:10.214Z,61.00
2019-05-09T19:03:36.543Z,61.10
2019-05-09T19:06:02.979Z,61.20
2019-05-09T19:08:29.307Z,61.50
2019-05-09T19:10:55.749Z,61.20
2019-05-09T19:13:22.178Z,61.30
2019-05-09T19:15:50.299Z,61.80
2019-05-09T19:18:18.519Z,61.90
2019-05-09T19:20:49.562Z,62.50
2019-05-09T19:23:15.787Z,62.60
2019-05-09T19:25:42.119Z,63.00
2019-05-09T19:28:08.450Z,63.30
2019-05-09T19:30:35.021Z,63.40
2019-05-09T19:33:01.629Z,63.70
2019-05-09T19:35:27.964Z,64.00
2019-05-09T19:37:54.387Z,64.20
2019-05-09T19:40:20.819Z,64.60
2019-05-09T19:42:47.252Z,64.90
2019-05-09T19:45:13.785Z,65.00
2019-05-09T19:47:40.139Z,64.70
2019-05-09T19:50:07.168Z,65.20
2019-05-09T19:52:38.246Z,65.40
2019-05-09T19:55:03.106Z,65.30
2019-05-09T19:57:29.427Z,65.30
2019-05-09T19:59:55.801Z,65.50
2019-05-09T20:02:22.387Z,64.90
2019-05-09T20:04:48.730Z,65.80
2019-05-09T20:07:15.060Z,65.60
2019-05-09T20:09:46.174Z,65.80
2019-05-09T20:12:23.390Z,66.00
2019-05-09T20:14:51.665Z,66.20
2019-05-09T20:17:18.001Z,66.30
2019-05-09T20:19:44.364Z,66.40
2019-05-09T20:22:10.603Z,66.70
2019-05-09T20:24:36.985Z,66.60
2019-05-09T20:27:03.857Z,66.80
2019-05-09T20:29:30.580Z,66.80
2019-05-09T20:31:57.079Z,67.50
2019-05-09T20:34:23.459Z,67.10
2019-05-09T20:36:49.887Z,67.20
2019-05-09T20:39:16.408Z,67.10
2019-05-09T20:41:42.735Z,67.20
2019-05-09T20:44:09.267Z,67.50
2019-05-09T20:46:35.802Z,67.40
2019-05-09T20:49:02.132Z,67.40
2019-05-09T20:51:28.565Z,67.40
2019-05-09T20:53:54.896Z,67.40
2019-05-09T20:56:21.231Z,67.70
2019-05-09T20:58:47.761Z,67.60
2019-05-09T21:01:14.307Z,67.50
2019-05-09T21:03:40.734Z,67.90
2019-05-09T21:06:07.059Z,68.00
2019-05-09T21:08:33.397Z,68.20
2019-05-09T21:10:59.823Z,68.10
2019-05-09T21:13:26.359Z,68.30
2019-05-09T21:15:52.797Z,68.60
2019-05-09T21:18:19.110Z,68.50
2019-05-09T21:20:45.447Z,68.50
2019-05-09T21:23:23.837Z,68.60
2019-05-09T21:25:39.963Z,68.50
2019-05-09T21:28:06.395Z,68.50
2019-05-09T21:30:32.885Z,68.70
2019-05-09T21:32:59.151Z,68.80
2019-05-09T21:35:27.401Z,68.60
2019-05-09T21:37:54.644Z,68.90
2019-05-09T21:40:20.851Z,68.80
2019-05-09T21:42:47.237Z,69.60
2019-05-09T21:45:13.976Z,68.70
2019-05-09T21:47:40.308Z,68.50
2019-05-09T21:50:07.227Z,68.50
2019-05-09T21:52:33.589Z,68.30
2019-05-09T21:55:01.767Z,68.30
2019-05-09T21:57:27.943Z,68.40
2019-05-09T21:59:54.283Z,68.20
2019-05-09T22:02:22.139Z,68.30
2019-05-09T22:04:48.612Z,68.20
2019-05-09T22:07:15.047Z,68.20
2019-05-09T22:09:41.367Z,68.20
2019-05-09T22:12:08.013Z,68.10
2019-05-09T22:14:34.343Z,68.10
2019-05-09T22:17:02.723Z,68.20
2019-05-09T22:19:29.109Z,68.30
2019-05-09T22:21:55.398Z,68.50
2019-05-09T22:24:21.707Z,68.60
2019-05-09T22:26:48.034Z,68.60
2019-05-09T22:29:14.374Z,69.00
2019-05-09T22:31:42.550Z,69.10
2019-05-09T22:34:08.982Z,69.00
2019-05-09T22:36:35.296Z,69.10
2019-05-09T22:39:01.725Z,69.20
2019-05-09T22:41:27.997Z,69.40
2019-05-09T22:43:54.616Z,69.40
2019-05-09T22:46:21.044Z,69.40
2019-05-09T22:48:47.374Z,69.60
2019-05-09T22:51:13.705Z,69.40
2019-05-09T22:53:40.038Z,69.50
2019-05-09T22:56:06.469Z,69.70
2019-05-09T22:58:32.699Z,69.40
2019-05-09T23:00:59.133Z,69.40
2019-05-09T23:03:25.460Z,69.40
2019-05-09T23:05:51.994Z,69.30
2019-05-09T23:08:18.452Z,69.40
2019-05-09T23:10:44.857Z,69.40
2019-05-09T23:13:11.291Z,69.40
2019-05-09T23:15:37.620Z,69.60
2019-05-09T23:18:03.847Z,69.60
2019-05-09T23:20:38.054Z,69.70
2019-05-09T23:23:06.444Z,69.70
2019-05-09T23:25:32.772Z,69.60
2019-05-09T23:27:59.425Z,69.30
2019-05-09T23:30:26.095Z,69.10
2019-05-09T23:32:52.481Z,69.00
2019-05-09T23:35:18.739Z,68.90
2019-05-09T23:37:45.143Z,69.20
2019-05-09T23:40:11.483Z,69.20
2019-05-09T23:42:37.806Z,69.20
2019-05-09T23:45:04.645Z,69.30
2019-05-09T23:47:30.862Z,69.10
2019-05-09T23:49:57.228Z,69.10
2019-05-09T23:52:23.532Z,69.40
2019-05-09T23:55:08.704Z,69.30
2019-05-09T23:57:53.398Z,69.30
